Time;durP1;ratioP1;P1;durP2;ratioP2;P2;SDS_P1;SDS_P2;PMS_P1;PMS_P2;Temp;Humidity;BMP_temperature;BMP_pressure;BME280_temperature;BME280_humidity;BME280_pressure;Samples;Min_cycle;Max_cycle;Signal;HPM_P1;HPM_P2
2023/06/29 00:01:27;;;;;;;2.63;1.95;;;;;;;;;;5105555;28;20271;-68
2023/06/29 00:03:53;;;;;;;2.70;2.50;;;;;;;;;;5105894;28;20206;-68
2023/06/29 00:06:19;;;;;;;2.50;2.30;;;;;;;;;;5105655;28;20199;-68
2023/06/29 00:08:47;;;;;;;2.88;2.60;;;;;;;;;;5105722;28;20203;-68
2023/06/29 00:11:13;;;;;;;4.40;2.25;;;;;;;;;;5105716;28;20206;-68
2023/06/29 00:13:39;;;;;;;2.67;2.47;;;;;;;;;;5105446;28;20199;-68
2023/06/29 00:16:07;;;;;;;2.58;2.30;;;;;;;;;;5105473;28;20206;-68
2023/06/29 00:18:34;;;;;;;5.47;2.28;;;;;;;;;;5105430;28;20606;-68
2023/06/29 00:21:03;;;;;;;2.90;2.40;;;;;;;;;;5105070;28;20200;-68
2023/06/29 00:23:32;;;;;;;2.50;2.30;;;;;;;;;;5105390;28;20499;-68
2023/06/29 00:25:58;;;;;;;2.92;2.38;;;;;;;;;;5105488;28;20396;-68
2023/06/29 00:28:24;;;;;;;4.60;2.67;;;;;;;;;;5105095;28;20212;-68
2023/06/29 00:30:51;;;;;;;2.38;2.28;;;;;;;;;;5104933;28;20199;-68
2023/06/29 00:33:18;;;;;;;2.83;2.40;;;;;;;;;;5105000;28;20532;-68
2023/06/29 00:35:45;;;;;;;4.43;2.40;;;;;;;;;;5105452;28;20200;-68
2023/06/29 00:38:11;;;;;;;5.13;2.58;;;;;;;;;;5105127;28;20223;-68
2023/06/29 00:40:37;;;;;;;2.47;2.25;;;;;;;;;;5105057;28;20204;-68
2023/06/29 00:43:03;;;;;;;2.58;2.20;;;;;;;;;;5104932;28;20200;-68
2023/06/29 00:45:30;;;;;;;2.70;2.58;;;;;;;;;;5104844;28;20533;-68
2023/06/29 00:47:57;;;;;;;2.97;1.83;;;;;;;;;;5104804;28;20230;-68
2023/06/29 00:50:25;;;;;;;2.65;2.25;;;;;;;;;;5104904;28;20203;-68
2023/06/29 00:52:51;;;;;;;3.15;2.50;;;;;;;;;;5104998;28;20211;-68
2023/06/29 00:55:17;;;;;;;2.58;2.45;;;;;;;;;;5104640;28;20526;-68
2023/06/29 00:57:45;;;;;;;3.15;2.60;;;;;;;;;;5104792;28;20441;-68
2023/06/29 01:00:12;;;;;;;2.97;2.50;;;;;;;;;;5104440;28;20253;-68
2023/06/29 01:02:40;;;;;;;2.55;2.15;;;;;;;;;;5104833;28;20195;-68
2023/06/29 01:05:09;;;;;;;2.35;2.22;;;;;;;;;;5104742;28;20196;-68
2023/06/29 01:07:38;;;;;;;3.15;2.17;;;;;;;;;;5104578;28;20203;-68
2023/06/29 01:10:05;;;;;;;2.38;2.28;;;;;;;;;;5103915;28;20204;-68
2023/06/29 01:12:32;;;;;;;3.72;2.40;;;;;;;;;;5104044;28;20199;-68
2023/06/29 01:14:59;;;;;;;3.90;2.55;;;;;;;;;;5104311;28;20266;-68
2023/06/29 01:17:28;;;;;;;2.45;2.35;;;;;;;;;;5104086;28;20226;-68
2023/06/29 01:19:55;;;;;;;3.65;2.47;;;;;;;;;;5104313;28;20203;-68
2023/06/29 01:22:24;;;;;;;3.90;2.53;;;;;;;;;;5104296;28;20203;-68
2023/06/29 01:24:52;;;;;;;2.92;2.70;;;;;;;;;;5104346;28;20215;-68
2023/06/29 01:27:20;;;;;;;2.97;2.47;;;;;;;;;;5103908;28;20222;-68
2023/06/29 01:29:46;;;;;;;3.67;2.67;;;;;;;;;;5087385;28;20523;-68
2023/06/29 01:32:14;;;;;;;5.05;2.20;;;;;;;;;;5104594;28;20192;-68
2023/06/29 01:34:40;;;;;;;5.57;2.50;;;;;;;;;;5104315;28;20231;-68
2023/06/29 01:37:09;;;;;;;2.65;2.53;;;;;;;;;;5103901;28;20200;-68
2023/06/29 01:39:37;;;;;;;2.83;2.63;;;;;;;;;;5103447;28;20204;-68
2023/06/29 01:42:06;;;;;;;2.35;2.22;;;;;;;;;;5104291;28;20199;-68
2023/06/29 01:44:32;;;;;;;2.50;2.30;;;;;;;;;;5103794;28;20204;-68
2023/06/29 01:46:59;;;;;;;2.80;2.60;;;;;;;;;;5103958;28;20203;-68
2023/06/29 01:49:25;;;;;;;3.28;2.92;;;;;;;;;;5103452;28;20206;-68
2023/06/29 01:51:52;;;;;;;4.10;2.88;;;;;;;;;;5103509;28;20507;-68
2023/06/29 01:54:18;;;;;;;3.38;2.55;;;;;;;;;;5103931;28;20206;-68
2023/06/29 01:56:44;;;;;;;2.45;2.33;;;;;;;;;;5103465;28;20272;-68
2023/06/29 01:59:12;;;;;;;3.35;2.78;;;;;;;;;;5103557;28;20222;-68
2023/06/29 02:01:38;;;;;;;2.53;2.42;;;;;;;;;;5103136;28;20391;-68
2023/06/29 02:04:05;;;;;;;3.08;2.88;;;;;;;;;;5103528;28;20208;-68
2023/06/29 02:06:32;;;;;;;2.30;2.20;;;;;;;;;;5103593;28;20216;-68
2023/06/29 02:08:58;;;;;;;3.10;2.92;;;;;;;;;;5103283;28;20270;-68
2023/06/29 02:11:24;;;;;;;2.92;2.45;;;;;;;;;;5103177;28;20396;-68
2023/06/29 02:13:50;;;;;;;2.67;2.47;;;;;;;;;;5103463;28;20277;-68
2023/06/29 02:16:18;;;;;;;3.25;2.95;;;;;;;;;;5103331;28;20227;-68
2023/06/29 02:18:44;;;;;;;5.07;2.75;;;;;;;;;;5102853;28;20547;-68
2023/06/29 02:21:10;;;;;;;2.97;2.78;;;;;;;;;;5103145;28;20206;-68
2023/06/29 02:23:37;;;;;;;4.75;2.90;;;;;;;;;;5103014;28;20207;-68
2023/06/29 02:26:03;;;;;;;6.45;2.63;;;;;;;;;;5103047;28;20202;-68
2023/06/29 02:28:29;;;;;;;4.15;2.50;;;;;;;;;;5102953;28;20212;-68
2023/06/29 02:30:55;;;;;;;4.70;2.60;;;;;;;;;;5102880;28;20196;-68
2023/06/29 02:33:24;;;;;;;4.00;2.97;;;;;;;;;;5102733;28;20196;-68
2023/06/29 02:35:50;;;;;;;3.10;2.90;;;;;;;;;;5103043;28;20195;-68
2023/06/29 02:38:16;;;;;;;3.00;2.75;;;;;;;;;;5102551;28;20216;-68
2023/06/29 02:40:42;;;;;;;2.85;2.65;;;;;;;;;;5102614;28;20507;-67
2023/06/29 02:43:09;;;;;;;3.00;2.80;;;;;;;;;;5102783;28;20263;-67
2023/06/29 02:45:35;;;;;;;4.00;2.90;;;;;;;;;;5102815;28;20202;-68
2023/06/29 02:48:01;;;;;;;3.38;3.08;;;;;;;;;;5102536;28;20195;-68
2023/06/29 02:50:29;;;;;;;2.92;2.72;;;;;;;;;;5102497;28;20529;-68
2023/06/29 02:52:55;;;;;;;3.08;2.78;;;;;;;;;;5102654;28;20195;-68
2023/06/29 02:55:22;;;;;;;3.05;2.85;;;;;;;;;;5102449;28;20199;-68
2023/06/29 02:57:48;;;;;;;7.30;2.80;;;;;;;;;;5102434;28;20215;-68
2023/06/29 03:00:15;;;;;;;3.03;2.75;;;;;;;;;;5102104;28;20202;-68
2023/06/29 03:02:41;;;;;;;4.07;3.03;;;;;;;;;;5102160;28;20267;-68
2023/06/29 03:05:08;;;;;;;2.47;2.38;;;;;;;;;;5102487;28;20202;-68
2023/06/29 03:07:36;;;;;;;3.45;2.80;;;;;;;;;;5102175;28;20397;-68
2023/06/29 03:10:02;;;;;;;3.25;3.03;;;;;;;;;;5102238;28;20196;-68
2023/06/29 03:12:28;;;;;;;3.35;3.03;;;;;;;;;;5102086;28;20202;-68
2023/06/29 03:14:55;;;;;;;3.53;3.33;;;;;;;;;;5102228;28;20196;-68
2023/06/29 03:17:21;;;;;;;3.40;3.17;;;;;;;;;;5102169;28;20492;-68
2023/06/29 03:19:47;;;;;;;3.45;2.90;;;;;;;;;;5101787;28;20230;-68
2023/06/29 03:22:14;;;;;;;3.28;3.08;;;;;;;;;;5102181;28;20299;-68
2023/06/29 03:24:41;;;;;;;3.45;3.15;;;;;;;;;;5102191;28;20206;-68
2023/06/29 03:27:08;;;;;;;3.65;3.25;;;;;;;;;;5102123;28;20223;-68
2023/06/29 03:29:34;;;;;;;3.35;3.08;;;;;;;;;;5102173;28;20192;-68
2023/06/29 03:32:00;;;;;;;3.22;3.00;;;;;;;;;;5101979;28;20267;-68
2023/06/29 03:34:26;;;;;;;3.35;3.15;;;;;;;;;;5101685;28;20404;-68
2023/06/29 03:36:53;;;;;;;4.15;3.80;;;;;;;;;;5102127;28;20202;-68
2023/06/29 03:39:19;;;;;;;4.85;3.72;;;;;;;;;;5101982;28;20221;-68
2023/06/29 03:41:47;;;;;;;3.55;3.17;;;;;;;;;;5101675;28;20261;-68
2023/06/29 03:44:13;;;;;;;4.80;3.17;;;;;;;;;;5101849;28;20206;-68
2023/06/29 03:46:39;;;;;;;5.60;3.45;;;;;;;;;;5102030;28;20204;-68
2023/06/29 03:49:06;;;;;;;3.78;3.47;;;;;;;;;;5101828;28;20192;-68
2023/06/29 03:51:32;;;;;;;3.30;3.10;;;;;;;;;;5101836;28;20503;-68
2023/06/29 03:53:58;;;;;;;3.63;3.30;;;;;;;;;;5101863;28;20195;-68
2023/06/29 03:56:24;;;;;;;5.53;3.13;;;;;;;;;;5101692;28;20199;-68
2023/06/29 03:58:52;;;;;;;3.90;3.60;;;;;;;;;;5101521;28;20297;-68
2023/06/29 04:01:18;;;;;;;3.85;3.15;;;;;;;;;;5101627;28;20546;-68
2023/06/29 04:03:45;;;;;;;4.60;3.35;;;;;;;;;;5101911;28;20272;-68
2023/06/29 04:06:11;;;;;;;4.25;2.88;;;;;;;;;;5101632;28;20195;-68
2023/06/29 04:08:37;;;;;;;4.35;3.28;;;;;;;;;;5101548;28;20196;-68
2023/06/29 04:11:03;;;;;;;4.82;3.67;;;;;;;;;;5101679;28;20298;-68
2023/06/29 04:13:30;;;;;;;4.40;3.20;;;;;;;;;;5101888;28;20202;-68
2023/06/29 04:15:57;;;;;;;3.53;3.20;;;;;;;;;;5101727;28;20204;-68
2023/06/29 04:18:24;;;;;;;4.90;3.47;;;;;;;;;;5101552;28;20219;-68
2023/06/29 04:20:51;;;;;;;3.72;3.38;;;;;;;;;;5101308;28;20204;-68
2023/06/29 04:23:18;;;;;;;4.85;3.58;;;;;;;;;;5101681;28;20196;-68
2023/06/29 04:25:44;;;;;;;4.38;3.47;;;;;;;;;;5101267;28;20200;-68
2023/06/29 04:28:12;;;;;;;3.25;3.13;;;;;;;;;;5101432;28;20212;-68
2023/06/29 04:30:40;;;;;;;4.60;3.58;;;;;;;;;;5101277;28;20214;-68
2023/06/29 04:33:10;;;;;;;4.85;3.90;;;;;;;;;;5101541;28;20203;-68
2023/06/29 04:35:36;;;;;;;3.55;3.35;;;;;;;;;;5101589;28;20373;-68
2023/06/29 04:38:03;;;;;;;5.75;4.20;;;;;;;;;;5101303;28;20200;-68
2023/06/29 04:40:29;;;;;;;4.07;3.78;;;;;;;;;;5101225;28;20202;-68
2023/06/29 04:42:55;;;;;;;6.03;4.22;;;;;;;;;;5101644;28;20504;-68
2023/06/29 04:45:21;;;;;;;3.95;3.65;;;;;;;;;;5101490;28;20215;-68
2023/06/29 04:47:49;;;;;;;4.43;3.55;;;;;;;;;;5105032;28;20200;-68
2023/06/29 04:50:25;;;;;;;5.47;3.80;;;;;;;;;;5105116;28;20211;-68
2023/06/29 04:52:51;;;;;;;3.97;3.75;;;;;;;;;;5104907;28;20460;-68
2023/06/29 04:55:18;;;;;;;4.03;3.70;;;;;;;;;;5105282;28;20199;-68
2023/06/29 04:57:44;;;;;;;5.10;4.60;;;;;;;;;;5104870;28;20203;-68
2023/06/29 05:00:11;;;;;;;5.75;4.45;;;;;;;;;;5105248;28;20212;-68
2023/06/29 05:02:38;;;;;;;9.00;4.30;;;;;;;;;;5104868;28;20237;-68
2023/06/29 05:05:05;;;;;;;4.80;3.40;;;;;;;;;;5105143;28;20248;-68
2023/06/29 05:07:32;;;;;;;7.47;3.95;;;;;;;;;;5104555;28;20394;-68
2023/06/29 05:09:59;;;;;;;6.68;4.00;;;;;;;;;;5096482;28;20192;-68
2023/06/29 05:12:25;;;;;;;5.07;3.63;;;;;;;;;;5104935;28;20196;-68
2023/06/29 05:14:52;;;;;;;5.32;3.95;;;;;;;;;;5104453;28;20200;-68
2023/06/29 05:17:18;;;;;;;6.35;3.65;;;;;;;;;;5104600;28;20203;-68
2023/06/29 05:19:44;;;;;;;4.32;3.92;;;;;;;;;;5104246;28;20535;-68
2023/06/29 05:22:11;;;;;;;4.40;4.00;;;;;;;;;;5104217;28;20210;-68
2023/06/29 05:24:38;;;;;;;3.80;3.35;;;;;;;;;;5104470;28;20200;-68
2023/06/29 05:27:05;;;;;;;4.40;3.90;;;;;;;;;;5104160;28;20239;-68
2023/06/29 05:29:31;;;;;;;5.80;3.47;;;;;;;;;;5104350;28;20199;-68
2023/06/29 05:31:58;;;;;;;6.45;4.20;;;;;;;;;;5103985;28;20195;-68
2023/06/29 05:34:24;;;;;;;7.60;4.20;;;;;;;;;;5104238;28;20202;-68
2023/06/29 05:36:50;;;;;;;6.68;4.03;;;;;;;;;;5104548;28;20199;-68
2023/06/29 05:39:16;;;;;;;6.60;4.00;;;;;;;;;;5104049;28;20222;-68
2023/06/29 05:41:44;;;;;;;4.65;4.18;;;;;;;;;;5103966;28;20270;-68
2023/06/29 05:44:10;;;;;;;5.53;4.15;;;;;;;;;;5103976;28;20202;-68
2023/06/29 05:46:37;;;;;;;7.40;4.28;;;;;;;;;;5103833;28;20405;-68
2023/06/29 05:49:03;;;;;;;4.88;4.40;;;;;;;;;;5104411;28;20192;-68
2023/06/29 05:51:30;;;;;;;4.93;4.30;;;;;;;;;;5103779;28;20196;-68
2023/06/29 05:53:56;;;;;;;8.60;4.43;;;;;;;;;;5103833;28;20202;-68
2023/06/29 05:56:22;;;;;;;6.07;4.78;;;;;;;;;;5103406;28;20214;-68
2023/06/29 05:58:50;;;;;;;5.85;4.75;;;;;;;;;;5103508;28;20216;-68
2023/06/29 06:01:17;;;;;;;6.20;4.18;;;;;;;;;;5103578;28;20495;-68
2023/06/29 06:03:43;;;;;;;5.50;4.13;;;;;;;;;;5103438;28;20411;-68
2023/06/29 06:06:10;;;;;;;9.35;4.47;;;;;;;;;;5103618;28;20195;-68
2023/06/29 06:08:36;;;;;;;7.90;4.07;;;;;;;;;;5103325;28;20517;-68
2023/06/29 06:11:02;;;;;;;7.43;3.88;;;;;;;;;;5103415;28;20398;-70
2023/06/29 06:13:28;;;;;;;7.75;4.22;;;;;;;;;;5103909;28;20225;-62
2023/06/29 06:15:56;;;;;;;4.22;3.83;;;;;;;;;;5098551;28;20535;-62
2023/06/29 06:18:22;;;;;;;5.53;3.97;;;;;;;;;;5097925;28;20303;-62
2023/06/29 06:20:49;;;;;;;8.68;4.57;;;;;;;;;;5098372;28;20218;-62
2023/06/29 06:23:15;;;;;;;5.82;3.80;;;;;;;;;;5099002;28;20208;-62
2023/06/29 06:25:42;;;;;;;4.43;4.05;;;;;;;;;;5098528;28;20208;-62
2023/06/29 06:28:09;;;;;;;4.80;4.30;;;;;;;;;;5098444;28;20571;-62
2023/06/29 06:30:35;;;;;;;5.80;4.40;;;;;;;;;;5096153;28;20207;-61
2023/06/29 06:33:04;;;;;;;8.43;4.15;;;;;;;;;;5097820;28;20208;-63
2023/06/29 06:35:31;;;;;;;4.50;3.55;;;;;;;;;;5101086;28;20384;-63
2023/06/29 06:37:57;;;;;;;4.25;3.90;;;;;;;;;;5100926;28;20207;-62
2023/06/29 06:40:23;;;;;;;5.15;3.60;;;;;;;;;;5100297;28;20282;-62
2023/06/29 06:42:50;;;;;;;11.38;3.67;;;;;;;;;;5099640;28;20212;-62
2023/06/29 06:45:17;;;;;;;4.80;3.70;;;;;;;;;;5100720;28;20519;-62
2023/06/29 06:47:43;;;;;;;4.13;3.05;;;;;;;;;;5100335;28;20215;-62
2023/06/29 06:50:11;;;;;;;7.65;3.42;;;;;;;;;;5101824;28;20233;-62
2023/06/29 06:52:37;;;;;;;5.82;3.20;;;;;;;;;;5101179;28;20208;-62
2023/06/29 06:55:05;;;;;;;4.28;3.47;;;;;;;;;;5096764;28;20282;-61
2023/06/29 06:57:32;;;;;;;3.80;3.40;;;;;;;;;;5098623;28;20207;-62
2023/06/29 06:59:58;;;;;;;4.93;3.55;;;;;;;;;;5099012;28;20227;-61
2023/06/29 07:02:25;;;;;;;5.72;3.05;;;;;;;;;;5099356;28;20207;-61
2023/06/29 07:04:51;;;;;;;5.50;3.05;;;;;;;;;;5100406;28;20211;-62
2023/06/29 07:07:19;;;;;;;5.53;3.25;;;;;;;;;;5099803;28;20499;-62
2023/06/29 07:09:45;;;;;;;8.40;3.40;;;;;;;;;;5098437;28;20215;-61
2023/06/29 07:12:11;;;;;;;5.45;3.50;;;;;;;;;;5100334;28;20279;-62
2023/06/29 07:14:38;;;;;;;4.82;3.03;;;;;;;;;;5099610;28;20211;-61
2023/06/29 07:17:04;;;;;;;4.88;3.00;;;;;;;;;;5100682;28;20533;-61
2023/06/29 07:19:31;;;;;;;7.13;3.08;;;;;;;;;;5099651;28;20255;-62
2023/06/29 07:21:57;;;;;;;3.28;2.50;;;;;;;;;;5100021;28;20574;-62
2023/06/29 07:24:25;;;;;;;5.75;2.85;;;;;;;;;;5096461;28;20208;-62
2023/06/29 07:26:51;;;;;;;3.75;3.20;;;;;;;;;;5099217;28;20212;-62
2023/06/29 07:29:17;;;;;;;3.42;3.13;;;;;;;;;;5098938;28;20231;-62
2023/06/29 07:31:44;;;;;;;3.90;3.03;;;;;;;;;;5098989;28;20243;-62
2023/06/29 07:34:10;;;;;;;5.53;3.10;;;;;;;;;;5099333;28;20208;-62
2023/06/29 07:36:38;;;;;;;4.75;3.08;;;;;;;;;;5099898;28;20207;-61
2023/06/29 07:39:04;;;;;;;3.55;2.85;;;;;;;;;;5099000;28;20278;-62
2023/06/29 07:41:32;;;;;;;4.78;2.53;;;;;;;;;;5098730;28;20212;-61
2023/06/29 07:43:59;;;;;;;3.83;2.67;;;;;;;;;;5098663;28;20215;-62
2023/06/29 07:46:26;;;;;;;5.57;3.10;;;;;;;;;;5098734;28;20527;-62
2023/06/29 07:48:54;;;;;;;2.95;2.60;;;;;;;;;;5098828;28;20214;-62
2023/06/29 07:51:21;;;;;;;5.85;2.83;;;;;;;;;;5099565;28;20211;-61
2023/06/29 07:53:48;;;;;;;6.13;2.50;;;;;;;;;;5099484;28;20226;-61
2023/06/29 07:56:14;;;;;;;2.88;2.50;;;;;;;;;;5099756;28;20207;-62
2023/06/29 07:58:42;;;;;;;6.38;2.40;;;;;;;;;;5098829;28;20449;-62
2023/06/29 08:01:08;;;;;;;10.10;3.00;;;;;;;;;;5099075;28;20227;-62
2023/06/29 08:03:34;;;;;;;3.13;2.22;;;;;;;;;;5099224;28;20215;-62
2023/06/29 08:06:01;;;;;;;3.88;2.30;;;;;;;;;;5099135;28;20218;-62
2023/06/29 08:08:28;;;;;;;3.78;2.53;;;;;;;;;;5099526;28;20215;-62
2023/06/29 08:10:55;;;;;;;4.50;2.55;;;;;;;;;;5098089;28;20269;-62
2023/06/29 08:13:21;;;;;;;6.63;2.20;;;;;;;;;;5098767;28;20207;-61
2023/06/29 08:15:49;;;;;;;4.15;2.42;;;;;;;;;;5098748;28;20211;-62
2023/06/29 08:18:15;;;;;;;2.95;2.35;;;;;;;;;;5099023;28;20415;-62
2023/06/29 08:20:41;;;;;;;5.50;2.72;;;;;;;;;;5100730;28;20247;-62
2023/06/29 08:23:07;;;;;;;9.00;2.53;;;;;;;;;;5101228;28;20200;-62
2023/06/29 08:25:34;;;;;;;7.63;2.60;;;;;;;;;;5096653;28;20278;-61
2023/06/29 08:28:00;;;;;;;3.58;2.38;;;;;;;;;;5104056;28;20417;-61
2023/06/29 08:30:26;;;;;;;4.00;2.30;;;;;;;;;;5102524;28;20558;-61
2023/06/29 08:32:54;;;;;;;2.97;2.08;;;;;;;;;;5102844;28;20220;-61
2023/06/29 08:35:20;;;;;;;4.47;2.30;;;;;;;;;;5102915;28;20207;-60
2023/06/29 08:37:47;;;;;;;7.25;2.30;;;;;;;;;;5102457;28;20215;-62
2023/06/29 08:40:14;;;;;;;4.68;2.20;;;;;;;;;;5102495;28;20233;-62
2023/06/29 08:42:40;;;;;;;5.10;2.33;;;;;;;;;;5102279;28;20211;-62
2023/06/29 08:45:07;;;;;;;3.05;2.00;;;;;;;;;;5101502;28;20207;-62
2023/06/29 08:47:34;;;;;;;6.38;2.08;;;;;;;;;;5101720;28;20256;-61
2023/06/29 08:50:03;;;;;;;3.22;1.80;;;;;;;;;;5101848;28;20215;-61
2023/06/29 08:52:32;;;;;;;7.07;2.03;;;;;;;;;;5102800;28;20408;-61
2023/06/29 08:54:58;;;;;;;5.03;2.00;;;;;;;;;;5101618;28;20203;-62
2023/06/29 08:57:25;;;;;;;3.90;1.70;;;;;;;;;;5102151;28;20226;-62
2023/06/29 08:59:52;;;;;;;2.95;1.65;;;;;;;;;;5101388;28;20233;-62
2023/06/29 09:02:18;;;;;;;2.63;2.15;;;;;;;;;;5101614;28;20211;-62
2023/06/29 09:04:45;;;;;;;9.07;2.25;;;;;;;;;;5101936;28;20218;-62
2023/06/29 09:07:14;;;;;;;6.78;1.83;;;;;;;;;;5101372;28;20507;-62
2023/06/29 09:09:40;;;;;;;2.10;1.75;;;;;;;;;;5099979;28;20278;-62
2023/06/29 09:12:07;;;;;;;3.63;1.90;;;;;;;;;;5101272;28;20206;-62
2023/06/29 09:14:37;;;;;;;3.60;1.60;;;;;;;;;;5101393;28;20207;-62
2023/06/29 09:17:12;;;;;;;2.88;2.15;;;;;;;;;;5102258;28;20235;-62
2023/06/29 09:19:38;;;;;;;2.95;1.98;;;;;;;;;;5100379;28;20273;-61
2023/06/29 09:22:06;;;;;;;4.55;1.98;;;;;;;;;;5101025;28;20211;-62
2023/06/29 09:24:34;;;;;;;8.73;1.92;;;;;;;;;;5102080;28;20214;-61
2023/06/29 09:27:01;;;;;;;2.85;1.98;;;;;;;;;;5102376;28;20243;-61
2023/06/29 09:29:27;;;;;;;4.15;1.98;;;;;;;;;;5101579;28;20198;-61
2023/06/29 09:31:54;;;;;;;6.20;1.70;;;;;;;;;;5101373;28;20211;-62
2023/06/29 09:34:21;;;;;;;4.53;2.20;;;;;;;;;;5102749;28;20207;-62
2023/06/29 09:36:48;;;;;;;5.72;1.70;;;;;;;;;;5103827;28;20592;-62
2023/06/29 09:39:14;;;;;;;5.45;1.70;;;;;;;;;;5088339;28;20221;-62
2023/06/29 09:41:52;;;;;;;2.70;1.45;;;;;;;;;;5103343;28;20237;-62
2023/06/29 09:44:19;;;;;;;3.60;1.83;;;;;;;;;;5094805;28;20396;-62
2023/06/29 09:46:46;;;;;;;2.33;1.52;;;;;;;;;;5102035;28;20412;-62
2023/06/29 09:49:13;;;;;;;1.13;1.13;;;;;;;;;;5102648;28;20274;-62
2023/06/29 09:51:40;;;;;;;1.63;1.52;;;;;;;;;;5102864;28;20249;-62
2023/06/29 09:54:10;;;;;;;3.60;1.60;;;;;;;;;;5102741;28;20526;-62
2023/06/29 09:56:37;;;;;;;2.78;1.35;;;;;;;;;;5102864;28;20207;-62
2023/06/29 09:59:05;;;;;;;3.28;1.60;;;;;;;;;;5102374;28;20233;-62
2023/06/29 10:01:32;;;;;;;5.00;1.40;;;;;;;;;;5102727;28;20250;-62
2023/06/29 10:03:58;;;;;;;1.65;1.52;;;;;;;;;;5102428;28;20207;-62
2023/06/29 10:06:30;;;;;;;2.20;1.70;;;;;;;;;;5103683;28;20393;-62
2023/06/29 10:08:58;;;;;;;4.40;1.20;;;;;;;;;;5102768;28;20222;-62
2023/06/29 10:11:28;;;;;;;2.95;1.48;;;;;;;;;;5102143;28;20215;-62
2023/06/29 10:13:55;;;;;;;4.03;1.67;;;;;;;;;;5102035;28;20246;-62
2023/06/29 10:16:23;;;;;;;1.60;1.45;;;;;;;;;;5102391;28;20211;-63
2023/06/29 10:18:51;;;;;;;4.05;1.70;;;;;;;;;;5102338;28;20209;-63
2023/06/29 10:21:17;;;;;;;1.60;1.50;;;;;;;;;;5094172;28;20227;-63
2023/06/29 10:23:44;;;;;;;3.63;1.27;;;;;;;;;;5101931;28;20215;-62
2023/06/29 10:26:11;;;;;;;2.03;1.55;;;;;;;;;;5101967;28;20246;-62
2023/06/29 10:28:38;;;;;;;3.22;1.80;;;;;;;;;;5102181;28;20562;-62
2023/06/29 10:31:04;;;;;;;2.38;1.42;;;;;;;;;;5102434;28;20211;-62
2023/06/29 10:33:32;;;;;;;8.27;1.45;;;;;;;;;;5099443;28;20199;-63
2023/06/29 10:35:59;;;;;;;1.85;1.73;;;;;;;;;;5098687;28;20558;-62
2023/06/29 10:38:32;;;;;;;2.42;1.75;;;;;;;;;;5099444;28;20214;-62
2023/06/29 10:40:58;;;;;;;5.18;1.50;;;;;;;;;;5097865;28;20245;-62
2023/06/29 10:43:25;;;;;;;1.58;1.48;;;;;;;;;;5098455;28;20207;-62
2023/06/29 10:45:52;;;;;;;2.95;1.70;;;;;;;;;;5097687;28;20218;-62
2023/06/29 10:48:18;;;;;;;3.22;1.40;;;;;;;;;;5097383;28;20211;-62
2023/06/29 10:50:47;;;;;;;2.42;1.67;;;;;;;;;;5098903;28;20391;-62
2023/06/29 10:53:14;;;;;;;4.70;1.52;;;;;;;;;;5097979;28;20211;-64
2023/06/29 10:55:42;;;;;;;2.03;1.80;;;;;;;;;;5098437;28;20207;-62
2023/06/29 10:58:13;;;;;;;3.22;1.50;;;;;;;;;;5098651;28;20218;-62
2023/06/29 11:00:40;;;;;;;4.00;1.85;;;;;;;;;;5097748;28;20223;-62
2023/06/29 11:03:08;;;;;;;4.72;1.73;;;;;;;;;;5098233;28;20218;-62
2023/06/29 11:05:35;;;;;;;4.28;1.77;;;;;;;;;;5098669;28;20237;-62
2023/06/29 11:08:03;;;;;;;3.15;1.60;;;;;;;;;;5098465;28;20534;-62
2023/06/29 11:10:29;;;;;;;2.40;1.92;;;;;;;;;;5098165;28;20210;-62
2023/06/29 11:12:55;;;;;;;3.15;1.70;;;;;;;;;;5097380;28;20220;-62
2023/06/29 11:15:23;;;;;;;2.70;2.40;;;;;;;;;;5097627;28;20203;-62
2023/06/29 11:17:50;;;;;;;2.60;2.40;;;;;;;;;;5097954;28;20531;-62
2023/06/29 11:20:18;;;;;;;2.97;2.78;;;;;;;;;;5096838;28;20207;-62
2023/06/29 11:22:45;;;;;;;2.35;1.98;;;;;;;;;;5096964;28;20211;-62
2023/06/29 11:25:14;;;;;;;3.08;2.50;;;;;;;;;;5096432;28;20542;-62
2023/06/29 11:27:40;;;;;;;5.47;2.55;;;;;;;;;;5097428;28;20230;-62
2023/06/29 11:30:09;;;;;;;2.90;2.70;;;;;;;;;;5097034;28;20211;-62
2023/06/29 11:32:36;;;;;;;3.55;2.50;;;;;;;;;;5097207;28;20214;-62
2023/06/29 11:35:02;;;;;;;7.55;2.67;;;;;;;;;;5096860;28;20392;-62
2023/06/29 11:37:29;;;;;;;2.50;2.25;;;;;;;;;;5097749;28;20237;-62
2023/06/29 11:39:56;;;;;;;3.88;2.38;;;;;;;;;;5096106;28;20219;-63
2023/06/29 11:42:24;;;;;;;3.53;2.63;;;;;;;;;;5096974;28;20308;-62
2023/06/29 11:45:00;;;;;;;4.82;2.72;;;;;;;;;;5096248;28;20218;-62
2023/06/29 11:47:27;;;;;;;4.68;3.00;;;;;;;;;;5088886;28;20541;-62
2023/06/29 11:49:59;;;;;;;4.68;2.70;;;;;;;;;;5096171;28;20218;-61
2023/06/29 11:52:25;;;;;;;4.05;2.78;;;;;;;;;;5088761;28;20214;-62
2023/06/29 11:54:52;;;;;;;4.85;3.30;;;;;;;;;;5096827;28;20417;-62
2023/06/29 11:57:18;;;;;;;3.42;3.08;;;;;;;;;;5100489;28;20207;-62
2023/06/29 11:59:46;;;;;;;3.28;2.97;;;;;;;;;;5100836;28;20215;-62
2023/06/29 12:02:14;;;;;;;3.60;2.95;;;;;;;;;;5100450;28;20530;-62
2023/06/29 12:04:53;;;;;;;3.17;2.92;;;;;;;;;;5098901;28;20218;-62
2023/06/29 12:07:19;;;;;;;3.88;2.58;;;;;;;;;;5098888;28;20545;-62
2023/06/29 12:09:48;;;;;;;4.97;3.50;;;;;;;;;;5099309;28;20222;-62
2023/06/29 12:12:14;;;;;;;5.55;3.22;;;;;;;;;;5099576;28;20697;-62
2023/06/29 12:14:40;;;;;;;4.90;3.40;;;;;;;;;;5098758;28;20207;-62
2023/06/29 12:17:19;;;;;;;2.97;2.78;;;;;;;;;;5100008;28;20415;-62
2023/06/29 12:19:45;;;;;;;5.80;2.85;;;;;;;;;;5099415;28;20565;-62
2023/06/29 12:22:12;;;;;;;3.30;3.00;;;;;;;;;;5099611;28;20219;-62
2023/06/29 12:24:38;;;;;;;3.22;2.80;;;;;;;;;;5099527;28;20203;-63
2023/06/29 12:27:05;;;;;;;5.15;3.30;;;;;;;;;;5098893;28;20238;-63
2023/06/29 12:29:31;;;;;;;3.10;2.90;;;;;;;;;;5099315;28;20357;-63
2023/06/29 12:32:01;;;;;;;5.88;3.50;;;;;;;;;;5098511;28;20538;-63
2023/06/29 12:34:31;;;;;;;3.30;3.00;;;;;;;;;;5098547;28;20213;-62
2023/06/29 12:36:57;;;;;;;4.57;3.13;;;;;;;;;;5099274;28;20214;-63
2023/06/29 12:39:24;;;;;;;3.45;2.92;;;;;;;;;;5099208;28;20204;-63
2023/06/29 12:41:50;;;;;;;4.70;2.92;;;;;;;;;;5098677;28;20215;-62
2023/06/29 12:44:16;;;;;;;4.95;3.20;;;;;;;;;;5098803;28;20526;-63
2023/06/29 12:46:43;;;;;;;4.90;3.05;;;;;;;;;;5098544;28;20460;-64
2023/06/29 12:49:09;;;;;;;3.17;2.80;;;;;;;;;;5098155;28;20211;-64
2023/06/29 12:51:36;;;;;;;3.88;3.40;;;;;;;;;;5099351;28;20214;-64
2023/06/29 12:54:04;;;;;;;3.90;3.50;;;;;;;;;;5098830;28;20215;-64
2023/06/29 12:56:31;;;;;;;3.85;3.00;;;;;;;;;;5099133;28;20534;-64
2023/06/29 12:58:57;;;;;;;7.03;3.15;;;;;;;;;;5098416;28;20207;-64
2023/06/29 13:01:24;;;;;;;5.93;3.70;;;;;;;;;;5097508;28;20222;-64
2023/06/29 13:03:50;;;;;;;5.32;3.72;;;;;;;;;;5098801;28;20210;-64
2023/06/29 13:06:16;;;;;;;5.88;3.60;;;;;;;;;;5097684;28;20203;-64
2023/06/29 13:08:44;;;;;;;4.93;2.95;;;;;;;;;;5098133;28;20248;-64
2023/06/29 13:11:12;;;;;;;4.80;3.55;;;;;;;;;;5098531;28;20207;-64
2023/06/29 13:13:38;;;;;;;10.02;3.83;;;;;;;;;;5097744;28;20207;-64
2023/06/29 13:16:05;;;;;;;6.30;3.45;;;;;;;;;;5097971;28;20252;-64
2023/06/29 13:18:31;;;;;;;4.38;3.42;;;;;;;;;;5098454;28;20229;-64
2023/06/29 13:20:57;;;;;;;5.20;3.25;;;;;;;;;;5098535;28;20226;-64
2023/06/29 13:23:24;;;;;;;6.57;3.30;;;;;;;;;;5098092;28;20400;-64
2023/06/29 13:25:51;;;;;;;6.93;2.90;;;;;;;;;;5098171;28;20286;-64
2023/06/29 13:28:17;;;;;;;6.80;2.50;;;;;;;;;;5097668;28;20573;-62
2023/06/29 13:30:44;;;;;;;2.42;2.20;;;;;;;;;;5098271;28;20696;-63
2023/06/29 13:33:10;;;;;;;2.22;2.00;;;;;;;;;;5104203;28;20503;-62
2023/06/29 13:35:37;;;;;;;5.20;1.83;;;;;;;;;;5104275;28;20212;-63
2023/06/29 13:38:03;;;;;;;6.47;2.30;;;;;;;;;;5103974;28;20499;-62
2023/06/29 13:40:30;;;;;;;10.63;2.45;;;;;;;;;;5104179;28;20195;-62
2023/06/29 13:42:57;;;;;;;4.30;2.38;;;;;;;;;;5104234;28;20238;-63
2023/06/29 13:45:24;;;;;;;2.53;2.40;;;;;;;;;;5103976;28;20230;-63
2023/06/29 13:47:58;;;;;;;4.38;2.17;;;;;;;;;;5104196;28;20237;-63
2023/06/29 13:50:24;;;;;;;2.78;2.47;;;;;;;;;;5103825;28;20202;-63
2023/06/29 13:52:50;;;;;;;3.10;2.20;;;;;;;;;;5104227;28;20206;-63
2023/06/29 13:55:16;;;;;;;8.13;2.53;;;;;;;;;;5103985;28;20206;-63
2023/06/29 13:57:43;;;;;;;4.43;2.47;;;;;;;;;;5104012;28;20199;-63
2023/06/29 14:00:12;;;;;;;3.03;2.70;;;;;;;;;;5103589;28;20503;-62
2023/06/29 14:02:38;;;;;;;8.57;2.80;;;;;;;;;;5103685;28;20233;-62
2023/06/29 14:05:05;;;;;;;7.65;2.75;;;;;;;;;;5104463;28;20213;-62
2023/06/29 14:07:31;;;;;;;7.32;2.60;;;;;;;;;;5103859;28;20396;-63
2023/06/29 14:09:58;;;;;;;3.08;2.50;;;;;;;;;;5103783;28;20335;-63
2023/06/29 14:12:24;;;;;;;3.40;2.50;;;;;;;;;;5103611;28;20199;-63
2023/06/29 14:14:50;;;;;;;7.00;2.30;;;;;;;;;;5103637;28;20210;-63
2023/06/29 14:17:20;;;;;;;3.58;2.53;;;;;;;;;;5103334;28;20390;-63
2023/06/29 14:19:49;;;;;;;3.45;2.38;;;;;;;;;;5103197;28;20274;-62
2023/06/29 14:22:15;;;;;;;3.50;2.50;;;;;;;;;;5103313;28;20554;-63
2023/06/29 14:24:41;;;;;;;5.82;2.35;;;;;;;;;;5103524;28;20195;-63
2023/06/29 14:27:08;;;;;;;6.60;2.70;;;;;;;;;;5103229;28;20565;-63
2023/06/29 14:29:34;;;;;;;5.57;2.35;;;;;;;;;;5103428;28;20202;-63
2023/06/29 14:32:00;;;;;;;7.30;2.35;;;;;;;;;;5102774;28;20195;-63
2023/06/29 14:34:28;;;;;;;4.78;2.50;;;;;;;;;;5103425;28;20195;-63
2023/06/29 14:36:54;;;;;;;3.85;2.60;;;;;;;;;;5103197;28;20400;-62
2023/06/29 14:39:20;;;;;;;9.25;2.40;;;;;;;;;;5103090;28;20199;-63
2023/06/29 14:41:53;;;;;;;6.25;2.78;;;;;;;;;;5103462;28;20226;-63